createdAt,value
2022-12-13T00:01:35.288Z,55.40
2022-12-13T00:04:29.805Z,53.90
2022-12-13T00:07:24.255Z,53.70
2022-12-13T00:10:18.760Z,53.50
2022-12-13T00:13:13.289Z,53.70
2022-12-13T00:16:10.471Z,53.90
2022-12-13T00:19:05.193Z,54.10
2022-12-13T00:21:59.674Z,53.90
2022-12-13T00:24:57.974Z,53.80
2022-12-13T00:27:52.369Z,53.50
2022-12-13T00:30:46.961Z,54.40
2022-12-13T00:33:41.402Z,54.10
2022-12-13T00:36:35.796Z,53.70
2022-12-13T00:39:30.490Z,54.10
2022-12-13T00:42:24.944Z,54.40
2022-12-13T00:45:19.479Z,53.60
2022-12-13T00:48:13.841Z,54.80
2022-12-13T00:51:12.676Z,54.40
2022-12-13T00:54:07.523Z,54.50
2022-12-13T00:57:01.881Z,54.40
2022-12-13T00:59:56.422Z,53.50
2022-12-13T01:02:51.126Z,53.60
2022-12-13T01:06:14.187Z,54.10
2022-12-13T01:09:00.668Z,54.10
2022-12-13T01:12:02.633Z,55.00
2022-12-13T01:14:57.009Z,55.50
2022-12-13T01:17:52.748Z,56.10
2022-12-13T01:21:00.636Z,55.50
2022-12-13T01:23:55.119Z,56.40
2022-12-13T01:26:49.942Z,57.70
2022-12-13T01:29:44.395Z,59.20
2022-12-13T01:32:38.827Z,62.20
2022-12-13T01:35:36.843Z,64.50
2022-12-13T01:38:31.438Z,68.60
2022-12-13T01:41:34.436Z,68.10
2022-12-13T01:44:56.176Z,66.20
2022-12-13T01:47:59.448Z,64.80
2022-12-13T01:50:58.582Z,63.80
2022-12-13T01:53:53.580Z,62.70
2022-12-13T01:57:00.734Z,60.10
2022-12-13T01:59:56.595Z,59.30
2022-12-13T02:02:51.364Z,58.60
2022-12-13T02:06:12.071Z,58.70
2022-12-13T02:09:08.888Z,58.70
2022-12-13T02:12:04.285Z,58.30
2022-12-13T02:15:04.157Z,58.60
2022-12-13T02:18:10.804Z,58.50
2022-12-13T02:21:32.662Z,58.80
2022-12-13T02:24:50.225Z,58.80
2022-12-13T02:28:30.394Z,57.80
2022-12-13T02:31:41.286Z,56.30
2022-12-13T02:34:35.575Z,55.30
2022-12-13T02:37:50.453Z,52.50
2022-12-13T02:40:54.772Z,50.30
2022-12-13T02:44:23.311Z,51.30
2022-12-13T02:47:25.047Z,54.10
2022-12-13T02:50:19.736Z,53.40
2022-12-13T02:53:17.147Z,54.90
2022-12-13T02:56:11.567Z,55.30
2022-12-13T02:59:16.475Z,56.20
2022-12-13T03:02:31.490Z,57.50
2022-12-13T03:06:15.084Z,59.40
2022-12-13T03:09:30.755Z,59.30
2022-12-13T03:12:58.642Z,59.70
2022-12-13T03:16:05.657Z,62.00
2022-12-13T03:19:03.519Z,64.30
2022-12-13T03:21:58.006Z,65.00
2022-12-13T03:24:54.192Z,66.10
2022-12-13T03:27:48.573Z,66.10
2022-12-13T03:30:42.960Z,67.80
2022-12-13T03:33:37.996Z,68.10
2022-12-13T03:36:32.399Z,67.90
2022-12-13T03:39:26.813Z,68.60
2022-12-13T03:42:21.492Z,68.20
2022-12-13T03:45:16.561Z,67.10
2022-12-13T03:48:11.165Z,66.70
2022-12-13T03:51:06.491Z,68.20
2022-12-13T03:54:00.913Z,69.70
2022-12-13T03:56:55.623Z,69.60
2022-12-13T03:59:50.127Z,74.70
2022-12-13T04:02:44.848Z,77.80
2022-12-13T04:05:39.442Z,80.40
2022-12-13T04:08:34.194Z,82.30
2022-12-13T04:11:47.344Z,82.80
2022-12-13T04:14:42.032Z,81.10
2022-12-13T04:17:36.507Z,76.70
2022-12-13T04:20:30.913Z,76.40
2022-12-13T04:23:25.498Z,76.90
2022-12-13T04:26:20.054Z,73.10
2022-12-13T04:29:14.922Z,71.50
2022-12-13T04:32:26.482Z,71.20
2022-12-13T04:35:21.730Z,71.00
2022-12-13T04:38:16.375Z,70.60
2022-12-13T04:41:18.719Z,69.10
2022-12-13T04:44:28.354Z,67.40
2022-12-13T04:47:25.072Z,67.30
2022-12-13T04:50:19.582Z,66.00
2022-12-13T04:53:20.202Z,66.80
2022-12-13T04:56:14.661Z,66.50
2022-12-13T04:59:09.025Z,63.50
2022-12-13T05:02:03.586Z,63.60
2022-12-13T05:04:58.103Z,63.00
2022-12-13T05:07:52.626Z,63.20
2022-12-13T05:10:47.052Z,63.10
2022-12-13T05:13:42.031Z,63.80
2022-12-13T05:16:36.570Z,62.50
2022-12-13T05:19:31.831Z,62.50
2022-12-13T05:22:26.366Z,63.30
2022-12-13T05:25:20.766Z,62.50
2022-12-13T05:28:28.289Z,61.30
2022-12-13T05:31:24.149Z,59.80
2022-12-13T05:34:18.625Z,58.70
2022-12-13T05:37:13.126Z,58.70
2022-12-13T05:40:08.059Z,58.00
2022-12-13T05:43:02.643Z,57.70
2022-12-13T05:45:56.985Z,57.60
2022-12-13T05:48:51.509Z,56.60
2022-12-13T05:51:45.944Z,57.20
2022-12-13T05:54:42.951Z,57.90
2022-12-13T05:57:37.867Z,57.50
2022-12-13T06:00:32.730Z,57.30
2022-12-13T06:03:27.361Z,56.00
2022-12-13T06:06:22.588Z,55.30
2022-12-13T06:09:17.100Z,54.90
2022-12-13T06:12:31.224Z,55.90
2022-12-13T06:15:26.546Z,54.70
2022-12-13T06:18:29.382Z,55.10
2022-12-13T06:21:23.712Z,55.60
2022-12-13T06:24:20.295Z,55.20
2022-12-13T06:27:14.747Z,55.40
2022-12-13T06:30:09.671Z,54.40
2022-12-13T06:33:04.041Z,55.10
2022-12-13T06:36:00.235Z,54.40
2022-12-13T06:38:54.930Z,54.10
2022-12-13T06:41:49.714Z,53.90
2022-12-13T06:44:44.615Z,53.40
2022-12-13T06:47:39.031Z,53.40
2022-12-13T06:50:33.790Z,53.00
2022-12-13T06:53:28.233Z,53.00
2022-12-13T06:56:22.704Z,52.30
2022-12-13T06:59:17.270Z,52.30
2022-12-13T07:02:15.410Z,51.00
2022-12-13T07:05:19.906Z,50.50
2022-12-13T07:08:14.459Z,50.90
2022-12-13T07:11:19.053Z,52.10
2022-12-13T07:14:13.554Z,52.00
2022-12-13T07:17:08.006Z,52.80
2022-12-13T07:20:02.784Z,53.50
2022-12-13T07:22:59.081Z,52.50
2022-12-13T07:25:57.233Z,50.70
2022-12-13T07:28:55.093Z,51.40
2022-12-13T07:31:50.047Z,51.90
2022-12-13T07:34:44.903Z,51.60
2022-12-13T07:37:39.453Z,51.80
2022-12-13T07:40:36.696Z,51.40
2022-12-13T07:43:31.301Z,50.60
2022-12-13T07:46:32.475Z,50.80
2022-12-13T07:49:28.080Z,51.30
2022-12-13T07:52:22.520Z,50.50
2022-12-13T07:55:17.639Z,49.80
2022-12-13T07:58:15.554Z,49.90
2022-12-13T08:01:13.258Z,49.80
2022-12-13T08:04:08.011Z,50.00
2022-12-13T08:07:02.370Z,49.60
2022-12-13T08:09:57.031Z,50.00
2022-12-13T08:12:51.459Z,49.20
2022-12-13T08:15:46.006Z,49.40
2022-12-13T08:18:45.329Z,48.90
2022-12-13T08:22:01.239Z,49.40
2022-12-13T08:24:56.251Z,48.70
2022-12-13T08:27:50.703Z,48.40
2022-12-13T08:30:45.150Z,48.60
2022-12-13T08:33:41.261Z,49.20
2022-12-13T08:36:35.816Z,49.30
2022-12-13T08:39:30.333Z,49.00
2022-12-13T08:42:29.560Z,49.30
2022-12-13T08:45:25.519Z,49.20
2022-12-13T08:48:20.033Z,49.10
2022-12-13T08:51:24.547Z,49.30
2022-12-13T08:54:31.585Z,49.40
2022-12-13T08:57:26.499Z,49.10
2022-12-13T09:00:23.700Z,49.10
2022-12-13T09:03:17.712Z,49.00
2022-12-13T09:06:17.605Z,48.20
2022-12-13T09:09:12.918Z,47.50
2022-12-13T09:12:10.667Z,47.90
2022-12-13T09:15:23.157Z,47.80
2022-12-13T09:18:24.086Z,47.60
2022-12-13T09:21:22.235Z,47.60
2022-12-13T09:24:24.339Z,47.30
2022-12-13T09:27:27.991Z,46.20
2022-12-13T09:30:23.153Z,46.70
2022-12-13T09:33:29.801Z,46.70
2022-12-13T09:36:25.357Z,47.20
2022-12-13T09:39:20.009Z,46.70
2022-12-13T09:42:30.555Z,47.10
2022-12-13T09:45:32.290Z,47.50
2022-12-13T09:48:27.011Z,48.10
2022-12-13T09:51:28.772Z,48.40
2022-12-13T09:54:36.466Z,48.80
2022-12-13T09:57:34.385Z,48.90
2022-12-13T10:00:36.822Z,49.30
2022-12-13T10:03:31.626Z,49.40
2022-12-13T10:06:29.921Z,49.90
2022-12-13T10:09:25.036Z,50.40
2022-12-13T10:12:19.623Z,51.10
2022-12-13T10:15:22.276Z,51.10
2022-12-13T10:18:23.302Z,50.70
2022-12-13T10:21:40.033Z,50.80
2022-12-13T10:24:55.999Z,51.30
2022-12-13T10:27:51.310Z,51.50
2022-12-13T10:30:46.788Z,51.80
2022-12-13T10:33:58.738Z,51.90
2022-12-13T10:36:53.746Z,52.10
2022-12-13T10:39:54.237Z,52.30
2022-12-13T10:42:56.712Z,52.30
2022-12-13T10:46:02.013Z,52.40
2022-12-13T10:48:56.769Z,52.60
2022-12-13T10:51:53.397Z,52.30
2022-12-13T10:54:50.136Z,52.40
2022-12-13T10:57:53.660Z,52.40
2022-12-13T11:00:50.688Z,52.10
2022-12-13T11:03:57.149Z,52.10
2022-12-13T11:06:59.208Z,52.00
2022-12-13T11:09:53.908Z,52.20
2022-12-13T11:12:49.178Z,52.00
2022-12-13T11:15:44.256Z,51.80
2022-12-13T11:18:42.697Z,52.00
2022-12-13T11:21:40.899Z,51.90
2022-12-13T11:24:52.778Z,52.00
2022-12-13T11:27:50.123Z,51.90
2022-12-13T11:31:02.243Z,52.00
2022-12-13T11:34:34.049Z,51.80
2022-12-13T11:37:28.487Z,52.00
2022-12-13T11:40:32.492Z,52.00
2022-12-13T11:44:13.141Z,51.60
2022-12-13T11:47:15.134Z,52.30
2022-12-13T11:50:33.836Z,52.50
2022-12-13T11:53:47.910Z,52.50
2022-12-13T11:56:47.093Z,52.60
2022-12-13T11:59:44.130Z,52.70
2022-12-13T12:02:43.620Z,52.60
2022-12-13T12:05:47.676Z,53.00
2022-12-13T12:08:55.183Z,52.40
2022-12-13T12:12:12.002Z,52.80
2022-12-13T12:15:18.319Z,52.90
2022-12-13T12:18:21.482Z,52.80
2022-12-13T12:21:21.968Z,52.90
2022-12-13T12:24:50.125Z,53.20
2022-12-13T12:28:14.276Z,53.30
2022-12-13T12:31:33.193Z,53.50
2022-12-13T12:34:48.686Z,53.80
2022-12-13T12:38:03.068Z,53.80
2022-12-13T12:41:29.088Z,54.50
2022-12-13T12:44:41.704Z,54.00
2022-12-13T12:48:49.008Z,54.10
2022-12-13T12:51:31.610Z,54.30
2022-12-13T12:55:10.256Z,54.40
2022-12-13T12:58:04.972Z,54.40
2022-12-13T13:01:13.998Z,54.60
2022-12-13T13:04:13.564Z,54.60
2022-12-13T13:07:24.891Z,54.80
2022-12-13T13:10:26.805Z,54.90
2022-12-13T13:13:46.609Z,55.00
2022-12-13T13:16:44.622Z,55.20
2022-12-13T13:19:42.601Z,55.30
2022-12-13T13:22:43.417Z,55.50
2022-12-13T13:26:00.269Z,55.60
2022-12-13T13:28:53.762Z,55.80
2022-12-13T13:32:02.651Z,55.80
2022-12-13T13:35:00.732Z,55.90
2022-12-13T13:37:55.980Z,56.00
2022-12-13T13:40:52.434Z,56.10
2022-12-13T13:43:46.939Z,56.20
2022-12-13T13:47:14.778Z,56.30
2022-12-13T13:50:12.463Z,56.30
2022-12-13T13:53:32.205Z,56.30
2022-12-13T13:56:57.045Z,56.80
2022-12-13T14:00:18.832Z,56.80
2022-12-13T14:03:37.907Z,57.00
2022-12-13T14:07:01.051Z,57.20
2022-12-13T14:10:08.006Z,57.50
2022-12-13T14:13:44.596Z,57.60
2022-12-13T14:17:07.067Z,57.90
2022-12-13T14:20:26.468Z,58.10
2022-12-13T14:23:45.328Z,58.10
2022-12-13T14:27:11.737Z,58.10
2022-12-13T14:30:27.149Z,58.50
2022-12-13T14:33:26.926Z,58.60
2022-12-13T14:36:30.774Z,58.70
2022-12-13T14:39:27.161Z,58.90
2022-12-13T14:42:31.131Z,59.10
2022-12-13T14:45:31.875Z,58.80
2022-12-13T14:48:28.246Z,59.10
2022-12-13T14:51:26.943Z,59.10
2022-12-13T14:54:26.065Z,59.20
2022-12-13T14:57:23.919Z,59.30
2022-12-13T15:00:28.156Z,59.40
2022-12-13T15:03:28.571Z,59.70
2022-12-13T15:06:24.009Z,59.70
2022-12-13T15:09:19.536Z,59.80
2022-12-13T15:12:24.339Z,60.00
2022-12-13T15:15:38.600Z,60.30
2022-12-13T15:18:34.294Z,60.50
2022-12-13T15:21:29.495Z,60.80
2022-12-13T15:24:28.409Z,61.10
2022-12-13T15:27:25.692Z,61.20
2022-12-13T15:30:19.647Z,61.40
2022-12-13T15:33:29.027Z,61.40
2022-12-13T15:36:31.413Z,61.30
2022-12-13T15:39:27.189Z,61.50
2022-12-13T15:42:28.735Z,62.00
2022-12-13T15:45:29.337Z,62.20
2022-12-13T15:48:37.990Z,62.40
2022-12-13T15:51:32.592Z,62.60
2022-12-13T15:54:28.856Z,62.90
2022-12-13T15:57:29.067Z,63.10
2022-12-13T16:00:36.426Z,63.40
2022-12-13T16:03:32.620Z,63.50
2022-12-13T16:06:29.295Z,64.10
2022-12-13T16:09:41.552Z,64.50
2022-12-13T16:12:48.155Z,65.00
2022-12-13T16:16:00.524Z,66.30
2022-12-13T16:19:03.715Z,67.70
2022-12-13T16:21:58.330Z,68.30
2022-12-13T16:24:53.984Z,68.90
2022-12-13T16:27:49.429Z,69.40
2022-12-13T16:30:56.173Z,69.50
2022-12-13T16:33:51.278Z,70.00
2022-12-13T16:36:47.668Z,69.40
2022-12-13T16:39:42.800Z,69.60
2022-12-13T16:42:37.241Z,69.70
2022-12-13T16:45:44.589Z,69.80
2022-12-13T16:48:39.036Z,70.00
2022-12-13T16:51:33.505Z,69.90
2022-12-13T16:54:28.697Z,69.80
2022-12-13T16:57:23.189Z,69.50
2022-12-13T17:00:17.921Z,69.90
2022-12-13T17:03:14.186Z,69.80
2022-12-13T17:06:11.094Z,69.50
2022-12-13T17:09:05.787Z,69.30
2022-12-13T17:12:00.212Z,69.40
2022-12-13T17:14:55.628Z,69.40
2022-12-13T17:17:50.336Z,69.30
2022-12-13T17:20:44.813Z,69.40
2022-12-13T17:23:39.443Z,69.30
2022-12-13T17:26:34.123Z,69.40
2022-12-13T17:29:28.653Z,69.40
2022-12-13T17:32:24.644Z,69.30
2022-12-13T17:35:19.276Z,69.20
2022-12-13T17:38:13.857Z,69.20
2022-12-13T17:41:08.388Z,69.50
2022-12-13T17:44:03.221Z,69.40
2022-12-13T17:46:57.680Z,69.50
2022-12-13T17:49:52.363Z,69.60
2022-12-13T17:52:46.799Z,70.00
2022-12-13T17:55:41.812Z,69.90
2022-12-13T17:58:37.144Z,69.80
2022-12-13T18:01:32.423Z,69.80
2022-12-13T18:04:26.895Z,70.10
2022-12-13T18:07:21.808Z,70.20
2022-12-13T18:10:16.360Z,70.40
2022-12-13T18:13:10.847Z,70.60
2022-12-13T18:16:13.894Z,70.90
2022-12-13T18:19:14.223Z,71.00
2022-12-13T18:22:08.767Z,71.00
2022-12-13T18:25:03.280Z,70.80
2022-12-13T18:28:01.096Z,70.90
2022-12-13T18:30:58.425Z,70.90
2022-12-13T18:33:54.710Z,70.70
2022-12-13T18:36:49.215Z,70.70
2022-12-13T18:39:43.789Z,71.00
2022-12-13T18:42:49.865Z,70.80
2022-12-13T18:45:44.354Z,70.90
2022-12-13T18:48:38.915Z,70.70
2022-12-13T18:51:33.662Z,70.80
2022-12-13T18:54:54.506Z,71.00
2022-12-13T18:57:53.025Z,70.90
2022-12-13T19:00:51.995Z,70.90
2022-12-13T19:03:48.341Z,70.90
2022-12-13T19:06:42.981Z,70.90
2022-12-13T19:09:37.583Z,71.00
2022-12-13T19:12:33.509Z,71.20
2022-12-13T19:15:28.005Z,71.10
2022-12-13T19:18:23.185Z,71.00
2022-12-13T19:21:20.719Z,70.90
2022-12-13T19:24:15.706Z,70.90
2022-12-13T19:27:10.160Z,71.10
2022-12-13T19:30:05.178Z,70.80
2022-12-13T19:32:59.663Z,70.70
2022-12-13T19:35:54.804Z,70.70
2022-12-13T19:38:49.299Z,70.70
2022-12-13T19:41:43.845Z,70.80
2022-12-13T19:44:38.275Z,70.70
2022-12-13T19:47:32.746Z,70.70
2022-12-13T19:50:27.304Z,70.50
2022-12-13T19:53:21.792Z,70.30
2022-12-13T19:56:19.829Z,70.40
2022-12-13T19:59:14.662Z,70.30
2022-12-13T20:02:09.308Z,70.40
2022-12-13T20:05:03.808Z,70.30
2022-12-13T20:08:05.303Z,70.70
2022-12-13T20:11:05.228Z,70.70
2022-12-13T20:13:59.634Z,70.80
2022-12-13T20:16:54.160Z,70.80
2022-12-13T20:19:48.724Z,70.90
2022-12-13T20:22:43.304Z,71.30
2022-12-13T20:25:39.243Z,72.20
2022-12-13T20:28:36.302Z,71.90
2022-12-13T20:31:33.128Z,72.20
2022-12-13T20:34:27.707Z,72.50
2022-12-13T20:37:22.312Z,72.80
2022-12-13T20:40:19.385Z,73.10
2022-12-13T20:43:16.048Z,73.10
2022-12-13T20:46:13.123Z,73.30
2022-12-13T20:49:10.072Z,73.60
2022-12-13T20:52:04.799Z,73.50
2022-12-13T20:54:59.256Z,73.50
2022-12-13T20:57:53.787Z,73.30
2022-12-13T21:00:48.353Z,72.50
2022-12-13T21:03:43.305Z,72.20
2022-12-13T21:06:41.178Z,72.20
2022-12-13T21:09:35.824Z,71.70
2022-12-13T21:12:30.359Z,71.20
2022-12-13T21:15:24.857Z,70.90
2022-12-13T21:18:19.957Z,70.70
2022-12-13T21:21:14.676Z,70.80
2022-12-13T21:24:10.081Z,70.50
2022-12-13T21:27:04.828Z,70.30
2022-12-13T21:29:59.254Z,69.40
2022-12-13T21:32:53.785Z,68.90
2022-12-13T21:35:48.293Z,68.40
2022-12-13T21:38:43.623Z,68.50
2022-12-13T21:41:38.180Z,67.60
2022-12-13T21:44:32.816Z,67.70
2022-12-13T21:47:27.342Z,67.20
2022-12-13T21:50:22.524Z,66.90
2022-12-13T21:53:16.958Z,66.70
2022-12-13T21:56:31.677Z,65.40
2022-12-13T21:59:30.164Z,66.60
2022-12-13T22:02:25.477Z,65.00
2022-12-13T22:05:20.258Z,64.00
2022-12-13T22:08:14.833Z,64.10
2022-12-13T22:11:20.844Z,64.10
2022-12-13T22:14:15.857Z,63.70
2022-12-13T22:17:10.325Z,62.90
2022-12-13T22:20:10.069Z,64.10
2022-12-13T22:23:04.524Z,63.20
2022-12-13T22:25:59.462Z,63.30
2022-12-13T22:28:54.569Z,63.10
2022-12-13T22:31:49.567Z,62.90
2022-12-13T22:34:44.142Z,62.80
2022-12-13T22:37:40.884Z,62.90
2022-12-13T22:40:35.412Z,62.60
2022-12-13T22:43:30.489Z,62.80
2022-12-13T22:46:25.104Z,61.80
2022-12-13T22:49:20.016Z,62.90
2022-12-13T22:52:14.588Z,62.20
2022-12-13T22:55:10.662Z,61.00
2022-12-13T22:58:05.137Z,59.70
2022-12-13T23:01:00.012Z,59.80
2022-12-13T23:03:54.924Z,58.80
2022-12-13T23:06:49.460Z,58.10
2022-12-13T23:09:43.894Z,58.20
2022-12-13T23:12:56.637Z,58.60
2022-12-13T23:15:51.216Z,58.20
2022-12-13T23:18:47.290Z,58.60
2022-12-13T23:21:42.110Z,58.40
2022-12-13T23:24:43.026Z,58.90
2022-12-13T23:27:37.437Z,58.50
2022-12-13T23:30:31.926Z,57.30
2022-12-13T23:33:26.395Z,57.50
2022-12-13T23:36:23.942Z,57.50
2022-12-13T23:39:18.416Z,57.30
2022-12-13T23:42:12.906Z,57.70
2022-12-13T23:45:07.877Z,58.10
2022-12-13T23:48:02.690Z,57.60
2022-12-13T23:50:57.992Z,58.00
2022-12-13T23:53:52.573Z,57.00
2022-12-13T23:56:47.288Z,57.20
2022-12-13T23:59:41.953Z,57.30
